createdAt,value
2022-10-05T00:00:12.782Z,101444.31
2022-10-05T00:02:39.163Z,101436.28
2022-10-05T00:05:12.325Z,101437.34
2022-10-05T00:07:38.758Z,101430.28
2022-10-05T00:10:11.557Z,101428.88
2022-10-05T00:12:37.899Z,101422.72
2022-10-05T00:15:10.420Z,101429.84
2022-10-05T00:17:36.786Z,101427.81
2022-10-05T00:20:20.588Z,101424.78
2022-10-05T00:22:47.231Z,101419.44
2022-10-05T00:25:18.417Z,101415.31
2022-10-05T00:27:48.581Z,101415.00
2022-10-05T00:30:19.654Z,101412.88
2022-10-05T00:32:46.635Z,101415.44
2022-10-05T00:35:13.805Z,101406.44
2022-10-05T00:37:40.652Z,101409.84
2022-10-05T00:40:30.428Z,101411.78
2022-10-05T00:43:02.960Z,101404.31
2022-10-05T00:45:32.671Z,101412.91
2022-10-05T00:48:08.289Z,101412.53
2022-10-05T00:50:40.758Z,101409.81
2022-10-05T00:53:26.025Z,101415.84
2022-10-05T00:55:52.533Z,101412.34
2022-10-05T00:58:28.051Z,101411.81
2022-10-05T01:01:02.604Z,101405.53
2022-10-05T01:03:48.301Z,101405.84
2022-10-05T01:06:33.518Z,101410.03
2022-10-05T01:09:14.090Z,101410.50
2022-10-05T01:11:44.876Z,101411.75
2022-10-05T01:14:17.383Z,101418.34
2022-10-05T01:16:58.274Z,101409.97
2022-10-05T01:19:50.758Z,101406.63
2022-10-05T01:22:34.531Z,101412.31
2022-10-05T01:25:03.887Z,101407.66
2022-10-05T01:27:48.477Z,101404.13
2022-10-05T01:30:21.941Z,101389.66
2022-10-05T01:33:10.497Z,101387.81
2022-10-05T01:35:42.983Z,101380.75
2022-10-05T01:38:09.351Z,101384.09
2022-10-05T01:40:38.670Z,101378.59
2022-10-05T01:43:14.251Z,101379.13
2022-10-05T01:45:40.665Z,101381.69
2022-10-05T01:48:27.016Z,101378.19
2022-10-05T01:51:08.704Z,101375.66
2022-10-05T01:53:41.391Z,101375.94
2022-10-05T01:56:26.658Z,101378.72
2022-10-05T01:58:53.002Z,101382.38
2022-10-05T02:01:19.479Z,101375.31
2022-10-05T02:04:06.165Z,101371.19
2022-10-05T02:06:36.189Z,101365.22
2022-10-05T02:09:05.941Z,101364.44
2022-10-05T02:11:32.774Z,101373.16
2022-10-05T02:14:02.384Z,101367.53
2022-10-05T02:16:30.385Z,101365.69
2022-10-05T02:18:59.837Z,101359.41
2022-10-05T02:21:27.742Z,101361.63
2022-10-05T02:23:56.456Z,101362.88
2022-10-05T02:26:24.122Z,101353.13
2022-10-05T02:28:53.409Z,101356.00
2022-10-05T02:31:23.091Z,101353.50
2022-10-05T02:33:49.519Z,101359.47
2022-10-05T02:36:23.661Z,101357.91
2022-10-05T02:39:09.077Z,101356.97
2022-10-05T02:41:39.648Z,101356.13
2022-10-05T02:44:15.429Z,101350.31
2022-10-05T02:46:47.003Z,101350.41
2022-10-05T02:49:33.024Z,101347.00
2022-10-05T02:51:59.387Z,101344.91
2022-10-05T02:54:25.733Z,101346.22
2022-10-05T02:57:07.990Z,101345.13
2022-10-05T02:59:34.806Z,101339.28
2022-10-05T03:02:15.619Z,101336.53
2022-10-05T03:04:48.356Z,101337.56
2022-10-05T03:07:22.045Z,101339.63
2022-10-05T03:10:01.102Z,101335.44
2022-10-05T03:12:35.396Z,101329.13
2022-10-05T03:15:07.952Z,101324.56
2022-10-05T03:17:42.963Z,101323.31
2022-10-05T03:20:19.792Z,101322.84
2022-10-05T03:22:50.977Z,101326.25
2022-10-05T03:25:37.568Z,101321.09
2022-10-05T03:28:04.051Z,101320.53
2022-10-05T03:30:36.717Z,101322.88
2022-10-05T03:33:13.416Z,101314.59
2022-10-05T03:35:52.930Z,101313.97
2022-10-05T03:38:25.493Z,101310.78
2022-10-05T03:40:58.373Z,101307.53
2022-10-05T03:43:45.126Z,101300.41
2022-10-05T03:46:11.597Z,101293.69
2022-10-05T03:48:51.832Z,101293.44
2022-10-05T03:51:31.471Z,101289.34
2022-10-05T03:54:11.723Z,101292.00
2022-10-05T03:56:40.924Z,101289.72
2022-10-05T03:59:15.549Z,101285.19
2022-10-05T04:01:45.961Z,101285.78
2022-10-05T04:04:18.591Z,101287.09
2022-10-05T04:06:49.724Z,101287.41
2022-10-05T04:09:20.066Z,101284.59
2022-10-05T04:11:52.717Z,101275.09
2022-10-05T04:14:28.472Z,101282.13
2022-10-05T04:16:59.580Z,101290.72
2022-10-05T04:19:31.891Z,101282.38
2022-10-05T04:22:07.604Z,101284.69
2022-10-05T04:24:38.376Z,101280.38
2022-10-05T04:27:14.624Z,101278.06
2022-10-05T04:29:44.656Z,101278.66
2022-10-05T04:32:30.658Z,101274.47
2022-10-05T04:35:05.062Z,101281.28
2022-10-05T04:37:42.178Z,101282.06
2022-10-05T04:40:15.130Z,101273.25
2022-10-05T04:42:50.732Z,101288.81
2022-10-05T04:45:20.088Z,101283.16
2022-10-05T04:47:56.002Z,101280.97
2022-10-05T04:50:28.247Z,101285.03
2022-10-05T04:53:05.225Z,101289.50
2022-10-05T04:55:46.805Z,101290.53
2022-10-05T04:58:29.253Z,101292.34
2022-10-05T05:01:01.980Z,101295.94
2022-10-05T05:03:37.662Z,101293.06
2022-10-05T05:06:23.315Z,101288.44
2022-10-05T05:08:53.406Z,101289.34
2022-10-05T05:11:24.301Z,101287.72
2022-10-05T05:13:57.831Z,101294.53
2022-10-05T05:16:41.196Z,101287.31
2022-10-05T05:19:20.613Z,101284.94
2022-10-05T05:21:58.048Z,101287.34
2022-10-05T05:24:34.677Z,101290.19
2022-10-05T05:27:04.324Z,101289.34
2022-10-05T05:29:34.134Z,101290.03
2022-10-05T05:32:07.368Z,101292.16
2022-10-05T05:34:48.951Z,101295.16
2022-10-05T05:37:18.406Z,101293.75
2022-10-05T05:40:03.956Z,101292.59
2022-10-05T05:42:31.836Z,101293.38
2022-10-05T05:45:03.389Z,101295.56
2022-10-05T05:47:37.860Z,101284.84
2022-10-05T05:50:07.280Z,101302.31
2022-10-05T05:52:59.395Z,101303.78
2022-10-05T05:55:32.968Z,101297.81
2022-10-05T05:58:14.909Z,101286.88
2022-10-05T06:00:52.463Z,101293.91
2022-10-05T06:03:22.349Z,101285.88
2022-10-05T06:05:49.834Z,101294.53
2022-10-05T06:08:35.603Z,101295.47
2022-10-05T06:11:23.485Z,101289.03
2022-10-05T06:13:50.961Z,101296.72
2022-10-05T06:16:20.731Z,101286.66
2022-10-05T06:18:51.401Z,101289.41
2022-10-05T06:21:21.895Z,101294.38
2022-10-05T06:23:51.486Z,101303.59
2022-10-05T06:26:24.554Z,101297.00
2022-10-05T06:28:55.946Z,101298.91
2022-10-05T06:31:29.674Z,101299.56
2022-10-05T06:34:03.982Z,101293.28
2022-10-05T06:36:40.129Z,101293.81
2022-10-05T06:39:09.891Z,101299.09
2022-10-05T06:41:39.447Z,101288.13
2022-10-05T06:44:13.207Z,101290.63
2022-10-05T06:46:55.388Z,101292.41
2022-10-05T06:49:39.602Z,101296.41
2022-10-05T06:52:38.120Z,101293.69
2022-10-05T06:55:34.615Z,101291.59
2022-10-05T06:58:27.673Z,101286.84
2022-10-05T07:01:10.502Z,101294.91
2022-10-05T07:03:47.687Z,101303.13
2022-10-05T07:06:20.722Z,101295.59
2022-10-05T07:08:47.380Z,101296.75
2022-10-05T07:11:32.834Z,101292.56
2022-10-05T07:14:18.657Z,101293.03
2022-10-05T07:17:01.714Z,101292.91
2022-10-05T07:19:40.955Z,101293.38
2022-10-05T07:22:22.783Z,101292.13
2022-10-05T07:24:58.116Z,101286.97
2022-10-05T07:27:27.887Z,101294.25
2022-10-05T07:30:00.645Z,101296.44
2022-10-05T07:32:43.116Z,101289.88
2022-10-05T07:35:46.996Z,101298.63
2022-10-05T07:38:20.986Z,101296.00
2022-10-05T07:41:13.775Z,101301.38
2022-10-05T07:44:02.324Z,101291.22
2022-10-05T07:46:40.021Z,101287.84
2022-10-05T07:49:25.569Z,101281.63
2022-10-05T07:51:55.731Z,101296.16
2022-10-05T07:54:30.876Z,101297.53
2022-10-05T07:57:00.462Z,101295.59
2022-10-05T07:59:45.535Z,101291.06
2022-10-05T08:02:17.638Z,101287.91
2022-10-05T08:04:53.351Z,101285.94
2022-10-05T08:07:20.237Z,101286.81
2022-10-05T08:10:03.087Z,101280.91
2022-10-05T08:12:37.403Z,101284.91
2022-10-05T08:15:03.736Z,101280.81
2022-10-05T08:18:02.504Z,101281.03
2022-10-05T08:20:31.677Z,101289.13
2022-10-05T08:23:01.449Z,101290.13
2022-10-05T08:25:39.286Z,101292.28
2022-10-05T08:28:13.657Z,101289.50
2022-10-05T08:30:50.235Z,101289.03
2022-10-05T08:33:18.137Z,101289.34
2022-10-05T08:35:47.007Z,101281.97
2022-10-05T08:38:18.446Z,101282.50
2022-10-05T08:41:03.471Z,101285.53
2022-10-05T08:43:48.678Z,101286.00
2022-10-05T08:46:25.731Z,101292.03
2022-10-05T08:49:10.939Z,101288.38
2022-10-05T08:51:55.560Z,101288.63
2022-10-05T08:54:38.140Z,101288.19
2022-10-05T08:57:07.482Z,101282.72
2022-10-05T08:59:36.950Z,101289.13
2022-10-05T09:02:12.657Z,101277.03
2022-10-05T09:05:05.432Z,101283.75
2022-10-05T09:07:50.104Z,101279.00
2022-10-05T09:10:16.456Z,101275.69
2022-10-05T09:12:55.092Z,101273.41
2022-10-05T09:15:48.053Z,101268.78
2022-10-05T09:18:17.343Z,101269.78
2022-10-05T09:20:54.146Z,101267.59
2022-10-05T09:23:35.978Z,101273.28
2022-10-05T09:26:21.257Z,101271.06
2022-10-05T09:29:03.017Z,101255.84
2022-10-05T09:31:49.903Z,101255.81
2022-10-05T09:34:22.518Z,101260.38
2022-10-05T09:37:01.230Z,101265.25
2022-10-05T09:39:46.493Z,101259.34
2022-10-05T09:42:19.051Z,101255.34
2022-10-05T09:45:04.357Z,101261.97
2022-10-05T09:47:33.698Z,101260.28
2022-10-05T09:50:12.340Z,101257.66
2022-10-05T09:52:57.517Z,101257.88
2022-10-05T09:55:31.309Z,101263.47
2022-10-05T09:58:03.720Z,101255.56
2022-10-05T10:00:36.382Z,101256.22
2022-10-05T10:03:12.149Z,101253.38
2022-10-05T10:05:57.308Z,101250.06
2022-10-05T10:08:40.101Z,101253.16
2022-10-05T10:11:24.667Z,101249.34
2022-10-05T10:14:00.365Z,101251.38
2022-10-05T10:16:26.786Z,101248.59
2022-10-05T10:18:56.260Z,101246.50
2022-10-05T10:21:46.191Z,101249.47
2022-10-05T10:24:42.412Z,101248.31
2022-10-05T10:27:19.093Z,101249.06
2022-10-05T10:29:57.635Z,101248.50
2022-10-05T10:32:39.381Z,101256.13
2022-10-05T10:35:09.142Z,101256.16
2022-10-05T10:37:59.026Z,101251.28
2022-10-05T10:40:33.132Z,101250.78
2022-10-05T10:43:18.088Z,101254.28
2022-10-05T10:45:50.733Z,101230.41
2022-10-05T10:48:17.126Z,101236.34
2022-10-05T10:51:09.716Z,101228.97
2022-10-05T10:53:36.058Z,101233.25
2022-10-05T10:56:02.429Z,101222.34
2022-10-05T10:58:34.939Z,101210.69
2022-10-05T11:01:16.473Z,101214.34
2022-10-05T11:03:49.748Z,101205.00
2022-10-05T11:06:35.110Z,101204.53
2022-10-05T11:09:09.239Z,101199.50
2022-10-05T11:11:54.406Z,101192.13
2022-10-05T11:14:29.763Z,101187.44
2022-10-05T11:17:08.291Z,101182.84
2022-10-05T11:19:46.398Z,101173.22
2022-10-05T11:22:25.083Z,101169.13
2022-10-05T11:25:03.523Z,101165.84
2022-10-05T11:27:33.777Z,101168.63
2022-10-05T11:30:18.710Z,101164.28
2022-10-05T11:32:48.148Z,101157.28
2022-10-05T11:35:24.610Z,101154.28
2022-10-05T11:38:09.791Z,101141.56
2022-10-05T11:40:43.114Z,101138.78
2022-10-05T11:43:25.029Z,101132.97
2022-10-05T11:46:06.669Z,101130.91
2022-10-05T11:48:53.269Z,101129.47
2022-10-05T11:51:34.026Z,101121.25
2022-10-05T11:54:19.102Z,101119.75
2022-10-05T11:56:56.491Z,101111.31
2022-10-05T11:59:26.601Z,101107.44
2022-10-05T12:02:05.230Z,101099.44
2022-10-05T12:04:34.553Z,101103.53
2022-10-05T12:07:04.017Z,101098.94
2022-10-05T12:09:30.448Z,101093.50
2022-10-05T12:12:05.934Z,101085.25
2022-10-05T12:14:36.992Z,101079.81
2022-10-05T12:17:13.989Z,101076.00
2022-10-05T12:19:55.324Z,101066.50
2022-10-05T12:22:25.264Z,101056.56
2022-10-05T12:25:10.372Z,101058.41
2022-10-05T12:27:42.025Z,101050.03
2022-10-05T12:30:08.483Z,101040.53
2022-10-05T12:32:37.989Z,101038.19
2022-10-05T12:35:11.531Z,101027.75
2022-10-05T12:37:40.641Z,101027.94
2022-10-05T12:40:16.216Z,101019.75
2022-10-05T12:42:45.963Z,101014.16
2022-10-05T12:45:30.906Z,101022.44
2022-10-05T12:48:06.433Z,101016.88
2022-10-05T12:50:35.288Z,101014.38
2022-10-05T12:53:07.794Z,101008.41
2022-10-05T12:55:46.184Z,101003.06
2022-10-05T12:58:15.539Z,100995.78
2022-10-05T13:00:51.784Z,100997.34
2022-10-05T13:03:24.104Z,100979.66
2022-10-05T13:05:53.926Z,100980.94
2022-10-05T13:08:52.588Z,100984.75
2022-10-05T13:11:23.563Z,100977.59
2022-10-05T13:13:58.979Z,100973.25
2022-10-05T13:16:28.374Z,100969.06
2022-10-05T13:19:06.691Z,100966.41
2022-10-05T13:21:33.089Z,100954.31
2022-10-05T13:24:18.177Z,100944.50
2022-10-05T13:26:48.494Z,100941.94
2022-10-05T13:29:33.883Z,100948.56
2022-10-05T13:32:03.536Z,100950.09
2022-10-05T13:34:48.653Z,100935.47
2022-10-05T13:37:22.615Z,100939.72
2022-10-05T13:39:52.093Z,100935.47
2022-10-05T13:42:22.666Z,100932.41
2022-10-05T13:44:48.981Z,100938.00
2022-10-05T13:47:21.203Z,100934.06
2022-10-05T13:49:54.797Z,100939.16
2022-10-05T13:52:28.525Z,100939.72
2022-10-05T13:55:13.249Z,100941.50
2022-10-05T13:57:58.757Z,100938.84
2022-10-05T14:00:26.940Z,100938.84
2022-10-05T14:02:56.229Z,100941.94
2022-10-05T14:05:22.858Z,100931.97
2022-10-05T14:07:49.249Z,100935.78
2022-10-05T14:10:28.729Z,100935.47
2022-10-05T14:12:55.453Z,100936.00
2022-10-05T14:15:27.982Z,100939.25
2022-10-05T14:17:54.729Z,100933.72
2022-10-05T14:20:33.186Z,100927.56
2022-10-05T14:23:18.463Z,100932.63
2022-10-05T14:25:53.782Z,100932.19
2022-10-05T14:28:20.353Z,100934.69
2022-10-05T14:30:59.011Z,100935.28
2022-10-05T14:33:33.326Z,100932.59
2022-10-05T14:35:59.802Z,100930.31
2022-10-05T14:38:32.219Z,100942.25
2022-10-05T14:41:04.753Z,100941.56
2022-10-05T14:43:31.260Z,100943.53
2022-10-05T14:45:58.921Z,100942.13
2022-10-05T14:48:28.958Z,100948.19
2022-10-05T14:50:55.295Z,100941.72
2022-10-05T14:53:24.883Z,100947.75
2022-10-05T14:55:51.252Z,100954.66
2022-10-05T14:58:23.689Z,100955.03
2022-10-05T15:00:59.588Z,100950.97
2022-10-05T15:03:31.221Z,100954.22
2022-10-05T15:06:02.213Z,100954.91
2022-10-05T15:08:45.051Z,100959.16
2022-10-05T15:11:22.037Z,100959.59
2022-10-05T15:13:48.852Z,100962.97
2022-10-05T15:16:30.936Z,100970.03
2022-10-05T15:19:04.516Z,100969.91
2022-10-05T15:21:55.161Z,100963.72
2022-10-05T15:24:26.638Z,100959.78
2022-10-05T15:27:01.023Z,100965.13
2022-10-05T15:29:51.291Z,100969.75
2022-10-05T15:32:42.835Z,100970.75
2022-10-05T15:35:24.623Z,100980.56
2022-10-05T15:37:57.726Z,100982.81
2022-10-05T15:40:28.475Z,100984.63
2022-10-05T15:42:59.770Z,100983.38
2022-10-05T15:45:37.482Z,100990.94
2022-10-05T15:48:19.994Z,101011.19
2022-10-05T15:50:55.797Z,101010.50
2022-10-05T15:53:45.734Z,101014.69
2022-10-05T15:56:24.431Z,101017.22
2022-10-05T15:58:56.861Z,101024.09
2022-10-05T16:01:40.754Z,101039.69
2022-10-05T16:04:17.995Z,101040.47
2022-10-05T16:07:21.198Z,101049.88
2022-10-05T16:09:47.637Z,101051.41
2022-10-05T16:12:20.159Z,101061.22
2022-10-05T16:15:01.534Z,101055.69
2022-10-05T16:17:27.890Z,101061.72
2022-10-05T16:19:57.338Z,101067.56
2022-10-05T16:22:39.930Z,101071.75
2022-10-05T16:25:22.137Z,101082.97
2022-10-05T16:28:07.032Z,101074.50
2022-10-05T16:30:52.513Z,101085.69
2022-10-05T16:33:26.892Z,101087.19
2022-10-05T16:36:02.924Z,101091.56
2022-10-05T16:38:38.718Z,101096.06
2022-10-05T16:41:05.149Z,101101.94
2022-10-05T16:43:41.223Z,101107.66
2022-10-05T16:46:10.909Z,101116.28
2022-10-05T16:48:49.676Z,101119.84
2022-10-05T16:51:36.632Z,101130.41
2022-10-05T16:54:14.825Z,101149.22
2022-10-05T16:56:47.413Z,101155.44
2022-10-05T16:59:16.877Z,101149.41
2022-10-05T17:02:02.134Z,101157.16
2022-10-05T17:05:04.209Z,101167.06
2022-10-05T17:07:34.944Z,101192.44
2022-10-05T17:10:19.867Z,101182.06
2022-10-05T17:13:02.074Z,101187.13
2022-10-05T17:15:50.905Z,101196.44
2022-10-05T17:18:20.131Z,101192.69
2022-10-05T17:20:55.693Z,101202.34
2022-10-05T17:23:56.015Z,101206.22
2022-10-05T17:26:32.029Z,101213.94
2022-10-05T17:29:00.384Z,101213.91
2022-10-05T17:31:28.920Z,101221.28
2022-10-05T17:34:26.121Z,101218.75
2022-10-05T17:37:15.257Z,101228.03
2022-10-05T17:39:46.956Z,101232.50
2022-10-05T17:42:31.590Z,101238.19
2022-10-05T17:45:03.267Z,101244.44
2022-10-05T17:47:52.111Z,101253.25
2022-10-05T17:50:54.423Z,101252.16
2022-10-05T17:53:41.579Z,101264.16
2022-10-05T17:56:08.011Z,101253.16
2022-10-05T17:58:35.114Z,101255.06
2022-10-05T18:01:01.486Z,101256.91
2022-10-05T18:03:35.069Z,101255.09
2022-10-05T18:06:21.786Z,101261.22
2022-10-05T18:08:48.164Z,101254.59
2022-10-05T18:11:35.263Z,101265.81
2022-10-05T18:14:17.901Z,101254.13
2022-10-05T18:17:27.753Z,101266.34
2022-10-05T18:20:13.274Z,101259.19
2022-10-05T18:22:39.677Z,101257.75
2022-10-05T18:25:10.392Z,101255.97
2022-10-05T18:27:51.646Z,101255.44
2022-10-05T18:30:20.198Z,101257.38
2022-10-05T18:32:58.594Z,101264.66
2022-10-05T18:35:32.930Z,101267.44
2022-10-05T18:38:22.707Z,101274.78
2022-10-05T18:40:55.328Z,101264.41
2022-10-05T18:43:33.917Z,101269.03
2022-10-05T18:46:18.303Z,101266.75
2022-10-05T18:49:03.222Z,101267.19
2022-10-05T18:51:35.930Z,101266.59
2022-10-05T18:54:11.745Z,101267.44
2022-10-05T18:56:45.404Z,101272.88
2022-10-05T18:59:24.310Z,101263.94
2022-10-05T19:02:10.847Z,101261.84
2022-10-05T19:04:40.314Z,101262.69
2022-10-05T19:07:16.549Z,101270.44
2022-10-05T19:09:48.752Z,101270.44
2022-10-05T19:12:21.488Z,101269.97
2022-10-05T19:14:47.920Z,101262.31
2022-10-05T19:17:25.301Z,101271.50
2022-10-05T19:20:17.306Z,101276.47
2022-10-05T19:22:55.514Z,101284.06
2022-10-05T19:25:21.890Z,101298.41
2022-10-05T19:28:02.650Z,101292.28
2022-10-05T19:30:36.061Z,101299.25
2022-10-05T19:33:21.490Z,101293.00
2022-10-05T19:36:03.826Z,101292.28
2022-10-05T19:38:42.538Z,101296.97
2022-10-05T19:41:14.423Z,101294.31
2022-10-05T19:43:46.731Z,101300.81
2022-10-05T19:46:21.877Z,101292.94
2022-10-05T19:48:49.858Z,101296.84
2022-10-05T19:51:26.165Z,101290.56
2022-10-05T19:53:55.932Z,101295.13
2022-10-05T19:56:25.198Z,101297.59
2022-10-05T19:58:56.438Z,101298.41
2022-10-05T20:01:40.021Z,101308.31
2022-10-05T20:04:07.520Z,101309.41
2022-10-05T20:06:34.339Z,101309.78
2022-10-05T20:09:18.300Z,101313.53
2022-10-05T20:11:51.800Z,101309.25
2022-10-05T20:14:19.906Z,101312.16
2022-10-05T20:17:04.800Z,101316.63
2022-10-05T20:19:43.114Z,101315.03
2022-10-05T20:22:28.382Z,101318.66
2022-10-05T20:24:56.550Z,101319.50
2022-10-05T20:27:41.605Z,101327.28
2022-10-05T20:30:09.444Z,101332.44
2022-10-05T20:32:35.847Z,101329.31
2022-10-05T20:35:02.260Z,101342.63
2022-10-05T20:37:28.699Z,101344.22
2022-10-05T20:39:55.086Z,101354.94
2022-10-05T20:42:22.966Z,101365.47
2022-10-05T20:44:54.324Z,101356.31
2022-10-05T20:47:23.056Z,101364.19
2022-10-05T20:49:49.441Z,101365.66
2022-10-05T20:52:15.902Z,101378.59
2022-10-05T20:54:42.391Z,101378.06
2022-10-05T20:57:08.980Z,101374.22
2022-10-05T20:59:36.127Z,101370.50
2022-10-05T21:02:03.723Z,101386.44
2022-10-05T21:04:40.036Z,101385.47
2022-10-05T21:07:07.159Z,101391.66
2022-10-05T21:09:33.651Z,101383.16
2022-10-05T21:12:00.091Z,101397.94
2022-10-05T21:14:30.455Z,101401.41
2022-10-05T21:16:56.847Z,101406.28
2022-10-05T21:19:23.290Z,101409.91
2022-10-05T21:21:49.699Z,101412.22
2022-10-05T21:24:17.240Z,101410.53
2022-10-05T21:26:44.292Z,101408.84
2022-10-05T21:29:12.921Z,101418.38
2022-10-05T21:31:41.171Z,101412.94
2022-10-05T21:34:08.049Z,101428.00
2022-10-05T21:36:34.908Z,101425.06
2022-10-05T21:39:01.496Z,101420.72
2022-10-05T21:41:27.871Z,101426.34
2022-10-05T21:43:54.291Z,101434.31
2022-10-05T21:46:21.938Z,101430.00
2022-10-05T21:48:49.245Z,101449.34
2022-10-05T21:51:18.431Z,101482.41
2022-10-05T21:53:50.037Z,101492.50
2022-10-05T21:56:17.773Z,101516.91
2022-10-05T21:58:45.925Z,101515.53
2022-10-05T22:01:12.427Z,101528.16
2022-10-05T22:03:39.157Z,101515.63
2022-10-05T22:06:05.700Z,101516.31
2022-10-05T22:08:34.944Z,101512.31
2022-10-05T22:11:08.807Z,101520.63
2022-10-05T22:13:42.871Z,101525.00
2022-10-05T22:16:10.057Z,101531.84
2022-10-05T22:18:36.474Z,101550.22
2022-10-05T22:21:04.028Z,101549.97
2022-10-05T22:23:30.409Z,101554.78
2022-10-05T22:25:56.766Z,101565.94
2022-10-05T22:28:23.135Z,101560.47
2022-10-05T22:30:49.642Z,101575.34
2022-10-05T22:33:16.470Z,101570.38
2022-10-05T22:35:43.061Z,101587.06
2022-10-05T22:38:09.516Z,101591.16
2022-10-05T22:40:36.312Z,101595.78
2022-10-05T22:43:02.779Z,101595.06
2022-10-05T22:45:32.426Z,101607.97
2022-10-05T22:47:59.084Z,101602.91
2022-10-05T22:50:25.490Z,101613.69
2022-10-05T22:52:54.884Z,101607.53
2022-10-05T22:55:21.334Z,101613.81
2022-10-05T22:57:49.163Z,101612.41
2022-10-05T23:00:16.050Z,101627.25
2022-10-05T23:02:43.335Z,101621.50
2022-10-05T23:05:13.104Z,101640.81
2022-10-05T23:07:41.008Z,101640.72
2022-10-05T23:10:08.726Z,101649.03
2022-10-05T23:12:35.089Z,101704.34
2022-10-05T23:15:01.703Z,101712.56
2022-10-05T23:17:28.384Z,101723.31
2022-10-05T23:19:54.746Z,101727.22
2022-10-05T23:22:21.557Z,101741.22
2022-10-05T23:24:47.978Z,101741.41
2022-10-05T23:27:14.406Z,101751.50
2022-10-05T23:29:40.773Z,101755.81
2022-10-05T23:32:07.917Z,101765.38
2022-10-05T23:34:34.274Z,101760.41
2022-10-05T23:37:00.638Z,101761.56
2022-10-05T23:39:27.001Z,101759.22
2022-10-05T23:41:53.350Z,101759.03
2022-10-05T23:44:20.485Z,101750.94
2022-10-05T23:46:46.912Z,101752.13
2022-10-05T23:49:14.724Z,101755.03
2022-10-05T23:51:41.174Z,101759.53
2022-10-05T23:54:07.626Z,101760.69
2022-10-05T23:56:33.993Z,101766.81
2022-10-05T23:59:00.380Z,101771.81
